Dyersburg, Tennessee
Current Conditions -  °F | °C
As of 3:55 AM on Sunday 23 Nov 2014 (Local Time) from KDYR Reporting Station
Overcast Overcast  
Wind Chill: 57°   Ceiling: 2100
Heat Index: 57°   Visibility: 10mi
Dew Point: 43°   Wind: 9mph
Humidity: 59%   Direction: 140°SE
Pressure: 29.85"   Gusts: NA
Location:  36.03°N, 89.38°W
Report Text: KDYR 230955Z 14008KT 10SM OVC021 14/06 A2985 RMK AO1
Loading
Personal Weather Stations






























Interactive Weather Map New forecast layout! Learn more

10-Day Weather Forecast

Advertisements
Track Severe Weather on mobile